Time;durP1;ratioP1;P1;durP2;ratioP2;P2;SDS_P1;SDS_P2;PMS_P1;PMS_P2;Temp;Humidity;BMP_temperature;BMP_pressure;BME280_temperature;BME280_humidity;BME280_pressure;Samples;Min_cycle;Max_cycle;Signal;HPM_P1;HPM_P2
2022/05/04 00:00:09;;;;;;;;;;;22.70;41.90;;;;;;685661;28;973;-82
2022/05/04 00:00:30;;;;;;;;;;;22.70;42.10;;;;;;687169;28;1118;-85
2022/05/04 00:00:50;;;;;;;;;;;22.80;42.00;;;;;;688314;28;723;-84
2022/05/04 00:01:11;;;;;;;;;;;22.70;41.90;;;;;;688422;28;857;-85
2022/05/04 00:01:32;;;;;;;;;;;22.70;41.80;;;;;;688146;28;850;-87
2022/05/04 00:01:52;;;;;;;;;;;22.70;41.90;;;;;;688316;28;849;-82
2022/05/04 00:02:13;;;;;;;;;;;22.70;42.80;;;;;;688566;28;890;-83
2022/05/04 00:02:33;;;;;;;;;;;22.70;41.80;;;;;;688504;28;803;-85
2022/05/04 00:02:54;;;;;;;;;;;22.70;41.80;;;;;;688653;28;901;-85
2022/05/04 00:03:15;;;;;;;;;;;22.70;41.70;;;;;;689269;28;853;-86
2022/05/04 00:03:39;;;;;;;;;;;22.70;41.70;;;;;;688857;28;932;-87
2022/05/04 00:03:59;;;;;;;;;;;22.70;42.00;;;;;;688497;28;930;-87
2022/05/04 00:04:20;;;;;;;;;;;22.70;41.70;;;;;;688690;28;830;-83
2022/05/04 00:04:41;;;;;;;;;;;22.70;41.60;;;;;;688719;28;1447;-80
2022/05/04 00:05:02;;;;;;;;;;;22.70;41.80;;;;;;688859;28;1348;-89
2022/05/04 00:05:22;;;;;;;;;;;22.70;42.10;;;;;;688674;28;901;-83
2022/05/04 00:05:43;;;;;;;;;;;22.70;42.10;;;;;;688654;28;771;-87
2022/05/04 00:06:04;;;;;;;;;;;22.70;42.10;;;;;;688755;28;1035;-85
2022/05/04 00:06:26;;;;;;;;;;;22.70;42.20;;;;;;688570;28;1354;-86
2022/05/04 00:07:22;;;;;;;;;;;22.70;42.10;;;;;;689361;28;822;-86
2022/05/04 00:07:44;;;;;;;;;;;22.70;42.10;;;;;;683137;29;858;-85
2022/05/04 00:08:04;;;;;;;;;;;22.70;41.80;;;;;;683096;29;878;-86
2022/05/04 00:08:25;;;;;;;;;;;22.70;41.70;;;;;;682863;29;1474;-85
2022/05/04 00:08:47;;;;;;;;;;;22.70;41.60;;;;;;683100;29;898;-87
2022/05/04 00:09:08;;;;;;;;;;;22.70;41.60;;;;;;683541;29;918;-87
2022/05/04 00:09:28;;;;;;;;;;;22.60;41.60;;;;;;683057;29;966;-86
2022/05/04 00:09:49;;;;;;;;;;;22.60;41.80;;;;;;682963;29;1073;-85
2022/05/04 00:10:09;;;;;;;;;;;22.60;42.00;;;;;;683171;29;1045;-83
2022/05/04 00:10:32;;;;;;;;;;;22.70;42.00;;;;;;683151;29;984;-85
2022/05/04 00:10:53;;;;;;;;;;;22.60;42.00;;;;;;683041;29;851;-84
2022/05/04 00:11:13;;;;;;;;;;;22.60;42.10;;;;;;683261;29;831;-82
2022/05/04 00:11:34;;;;;;;;;;;22.60;42.20;;;;;;683608;29;839;-86
2022/05/04 00:11:55;;;;;;;;;;;22.60;41.90;;;;;;683159;29;907;-87
2022/05/04 00:12:15;;;;;;;;;;;22.60;41.80;;;;;;683093;29;1099;-84
2022/05/04 00:12:36;;;;;;;;;;;22.60;41.90;;;;;;683141;29;582;-84
2022/05/04 00:12:59;;;;;;;;;;;22.60;41.60;;;;;;682853;29;958;-87
2022/05/04 00:13:20;;;;;;;;;;;22.60;41.70;;;;;;683035;29;1907;-87
2022/05/04 00:13:40;;;;;;;;;;;22.60;41.50;;;;;;682920;29;827;-88
2022/05/04 00:14:01;;;;;;;;;;;22.60;41.60;;;;;;682973;29;771;-85
2022/05/04 00:14:25;;;;;;;;;;;22.60;42.00;;;;;;682978;29;787;-86
2022/05/04 00:14:47;;;;;;;;;;;22.60;42.30;;;;;;682949;29;807;-85
2022/05/04 00:15:08;;;;;;;;;;;22.60;42.30;;;;;;683007;29;881;-85
2022/05/04 00:15:29;;;;;;;;;;;22.60;42.20;;;;;;683001;29;1335;-84
2022/05/04 00:15:50;;;;;;;;;;;22.60;42.00;;;;;;682915;29;815;-87
2022/05/04 00:16:11;;;;;;;;;;;22.60;42.10;;;;;;683000;29;858;-89
2022/05/04 00:16:31;;;;;;;;;;;22.60;41.80;;;;;;680087;29;1406;-87
2022/05/04 00:16:52;;;;;;;;;;;22.60;42.10;;;;;;680280;29;1143;-84
2022/05/04 00:17:13;;;;;;;;;;;22.60;42.20;;;;;;680362;29;946;-86
2022/05/04 00:17:33;;;;;;;;;;;22.60;42.20;;;;;;680304;29;807;-83
2022/05/04 00:17:54;;;;;;;;;;;22.50;42.20;;;;;;680476;29;919;-85
2022/05/04 00:18:14;;;;;;;;;;;22.60;42.30;;;;;;680703;29;867;-91
2022/05/04 00:18:35;;;;;;;;;;;22.60;42.10;;;;;;683357;29;942;-86
2022/05/04 00:18:55;;;;;;;;;;;22.60;41.80;;;;;;682878;29;1104;-89
2022/05/04 00:19:16;;;;;;;;;;;22.60;41.50;;;;;;683029;29;898;-84
2022/05/04 00:19:36;;;;;;;;;;;22.60;41.80;;;;;;683189;29;791;-82
2022/05/04 00:19:57;;;;;;;;;;;22.60;42.20;;;;;;682843;29;855;-87
2022/05/04 00:20:18;;;;;;;;;;;22.60;42.30;;;;;;682927;29;922;-86
2022/05/04 00:20:39;;;;;;;;;;;22.60;42.20;;;;;;682959;29;875;-89
2022/05/04 00:20:59;;;;;;;;;;;22.60;41.80;;;;;;682894;29;784;-84
2022/05/04 00:21:20;;;;;;;;;;;22.60;41.60;;;;;;682913;29;886;-88
2022/05/04 00:21:40;;;;;;;;;;;22.60;41.40;;;;;;683049;29;846;-87
2022/05/04 00:22:01;;;;;;;;;;;22.50;41.40;;;;;;682766;29;949;-84
2022/05/04 00:22:22;;;;;;;;;;;22.50;42.00;;;;;;682901;29;799;-92
2022/05/04 00:22:43;;;;;;;;;;;22.50;42.20;;;;;;683038;29;947;-82
2022/05/04 00:23:04;;;;;;;;;;;22.50;42.10;;;;;;683117;29;1208;-83
2022/05/04 00:23:25;;;;;;;;;;;22.50;41.50;;;;;;682879;29;1029;-91
2022/05/04 00:23:45;;;;;;;;;;;22.50;41.40;;;;;;682950;29;815;-91
2022/05/04 00:24:06;;;;;;;;;;;22.60;41.90;;;;;;682936;29;839;-89
2022/05/04 00:24:26;;;;;;;;;;;22.50;42.00;;;;;;683219;29;822;-85
2022/05/04 00:24:47;;;;;;;;;;;22.50;41.90;;;;;;683048;29;1362;-89
2022/05/04 00:25:08;;;;;;;;;;;22.50;41.90;;;;;;683125;29;846;-89
2022/05/04 00:25:29;;;;;;;;;;;22.50;41.80;;;;;;682934;29;1074;-91
2022/05/04 00:25:49;;;;;;;;;;;22.50;41.60;;;;;;683034;29;839;-88
2022/05/04 00:26:10;;;;;;;;;;;22.50;41.70;;;;;;682953;29;888;-84
2022/05/04 00:26:30;;;;;;;;;;;22.50;41.60;;;;;;682886;29;871;-87
2022/05/04 00:26:51;;;;;;;;;;;22.50;41.40;;;;;;683018;29;807;-87
2022/05/04 00:27:14;;;;;;;;;;;22.50;41.40;;;;;;683061;29;831;-90
2022/05/04 00:27:36;;;;;;;;;;;22.50;41.40;;;;;;683115;29;898;-91
2022/05/04 00:27:58;;;;;;;;;;;22.50;41.40;;;;;;682964;29;863;-83
2022/05/04 00:28:19;;;;;;;;;;;22.50;42.60;;;;;;683003;29;835;-92
2022/05/04 00:28:40;;;;;;;;;;;22.50;41.50;;;;;;683163;29;945;-83
2022/05/04 00:29:01;;;;;;;;;;;22.50;41.50;;;;;;682914;29;787;-94
2022/05/04 00:29:23;;;;;;;;;;;22.50;41.80;;;;;;682795;29;1283;-87
2022/05/04 00:29:44;;;;;;;;;;;22.50;41.90;;;;;;682775;29;1239;-88
2022/05/04 00:30:05;;;;;;;;;;;22.50;42.00;;;;;;682946;29;1291;-87
2022/05/04 00:30:26;;;;;;;;;;;22.50;41.70;;;;;;682995;29;1304;-87
2022/05/04 00:30:48;;;;;;;;;;;22.50;41.60;;;;;;683048;29;855;-88
2022/05/04 00:31:09;;;;;;;;;;;22.50;42.00;;;;;;683073;29;1434;-87
2022/05/04 00:31:30;;;;;;;;;;;22.60;42.00;;;;;;684810;28;1408;-87
2022/05/04 00:31:50;;;;;;;;;;;22.50;41.80;;;;;;682737;28;1222;-86
2022/05/04 00:32:14;;;;;;;;;;;22.50;42.00;;;;;;682869;29;1299;-88
2022/05/04 00:32:34;;;;;;;;;;;22.50;42.00;;;;;;680292;29;1148;-88
2022/05/04 00:32:55;;;;;;;;;;;22.50;42.40;;;;;;680326;29;1002;-86
2022/05/04 00:33:15;;;;;;;;;;;22.50;42.50;;;;;;677504;29;1973;-89
2022/05/04 00:33:36;;;;;;;;;;;22.50;42.00;;;;;;677716;29;788;-87
2022/05/04 00:33:57;;;;;;;;;;;22.60;42.00;;;;;;675018;29;1380;-86
2022/05/04 00:34:17;;;;;;;;;;;22.50;42.30;;;;;;675433;29;831;-88
2022/05/04 00:34:38;;;;;;;;;;;22.50;42.40;;;;;;677755;29;753;-88
2022/05/04 00:34:59;;;;;;;;;;;22.50;42.40;;;;;;675252;29;1128;-88
2022/05/04 00:35:19;;;;;;;;;;;22.50;42.30;;;;;;674979;29;1502;-86
2022/05/04 00:35:40;;;;;;;;;;;22.50;42.60;;;;;;677206;28;981;-87
2022/05/04 00:36:00;;;;;;;;;;;22.50;42.00;;;;;;685514;28;1507;-92
2022/05/04 00:36:21;;;;;;;;;;;22.50;41.60;;;;;;685725;28;971;-91
2022/05/04 00:36:42;;;;;;;;;;;22.50;41.90;;;;;;685953;28;858;-87
2022/05/04 00:37:03;;;;;;;;;;;22.50;42.50;;;;;;688070;28;866;-81
2022/05/04 00:37:23;;;;;;;;;;;22.50;42.70;;;;;;688150;28;989;-89
2022/05/04 00:37:44;;;;;;;;;;;22.50;42.70;;;;;;688479;28;791;-90
2022/05/04 00:38:05;;;;;;;;;;;22.50;42.70;;;;;;691147;28;795;-92
2022/05/04 00:38:25;;;;;;;;;;;22.50;42.60;;;;;;690949;28;839;-92
2022/05/04 00:38:46;;;;;;;;;;;22.50;42.50;;;;;;691002;28;874;-88
2022/05/04 00:39:06;;;;;;;;;;;22.50;42.40;;;;;;691236;28;822;-89
2022/05/04 00:39:27;;;;;;;;;;;22.50;42.20;;;;;;691090;28;858;-95
2022/05/04 00:39:48;;;;;;;;;;;22.50;42.30;;;;;;691098;28;814;-92
2022/05/04 00:40:09;;;;;;;;;;;22.50;42.20;;;;;;691126;28;874;-85
2022/05/04 00:40:30;;;;;;;;;;;22.50;42.60;;;;;;690932;28;906;-89
2022/05/04 00:40:50;;;;;;;;;;;22.50;42.50;;;;;;690996;28;802;-91
2022/05/04 00:41:11;;;;;;;;;;;22.50;42.60;;;;;;691024;28;1401;-89
2022/05/04 00:41:31;;;;;;;;;;;22.50;42.30;;;;;;690927;28;818;-91
2022/05/04 00:41:52;;;;;;;;;;;22.50;42.30;;;;;;691154;28;775;-91
2022/05/04 00:42:16;;;;;;;;;;;22.50;42.40;;;;;;691228;28;870;-82
2022/05/04 00:42:39;;;;;;;;;;;22.50;42.40;;;;;;693218;28;993;-80
2022/05/04 00:43:41;;;;;;;;;;;22.50;42.50;;;;;;697354;28;1400;-92
2022/05/04 00:44:01;;;;;;;;;;;22.50;42.30;;;;;;696421;28;1158;-86
2022/05/04 00:44:22;;;;;;;;;;;22.50;42.20;;;;;;696450;28;861;-86
2022/05/04 00:44:44;;;;;;;;;;;22.50;42.50;;;;;;696796;28;1003;-90
2022/05/04 00:45:05;;;;;;;;;;;22.50;42.30;;;;;;694138;28;1097;-91
2022/05/04 00:45:25;;;;;;;;;;;22.50;42.00;;;;;;696340;28;975;-87
2022/05/04 00:45:46;;;;;;;;;;;22.50;41.90;;;;;;696485;28;1089;-87
2022/05/04 00:46:08;;;;;;;;;;;22.50;42.20;;;;;;696837;28;861;-94
2022/05/04 00:46:29;;;;;;;;;;;22.50;42.30;;;;;;696424;28;1092;-95
2022/05/04 00:46:50;;;;;;;;;;;22.50;42.40;;;;;;697453;28;841;-91
2022/05/04 00:47:10;;;;;;;;;;;22.50;42.50;;;;;;697041;28;1712;-89
2022/05/04 00:47:32;;;;;;;;;;;22.50;42.60;;;;;;696432;28;1336;-94
2022/05/04 00:47:53;;;;;;;;;;;22.50;42.90;;;;;;695850;28;826;-90
2022/05/04 00:48:14;;;;;;;;;;;22.50;43.40;;;;;;693934;28;814;-84
2022/05/04 00:48:34;;;;;;;;;;;22.50;44.80;;;;;;693946;28;913;-94
2022/05/04 00:48:55;;;;;;;;;;;22.50;43.00;;;;;;694268;28;879;-91
2022/05/04 00:49:15;;;;;;;;;;;22.50;42.90;;;;;;696951;28;878;-89
2022/05/04 00:49:36;;;;;;;;;;;22.50;43.10;;;;;;699329;28;1062;-84
2022/05/04 00:49:57;;;;;;;;;;;22.50;42.70;;;;;;699317;28;865;-92
2022/05/04 00:50:20;;;;;;;;;;;22.50;42.70;;;;;;699367;28;782;-90
2022/05/04 00:50:41;;;;;;;;;;;22.60;43.00;;;;;;699417;28;897;-90
2022/05/04 00:51:02;;;;;;;;;;;22.50;42.50;;;;;;699349;28;936;-93
2022/05/04 00:51:23;;;;;;;;;;;22.50;42.40;;;;;;696525;28;1453;-85
2022/05/04 00:51:44;;;;;;;;;;;22.60;42.40;;;;;;696428;28;913;-88
2022/05/04 00:52:05;;;;;;;;;;;22.50;42.40;;;;;;696506;28;952;-90
2022/05/04 00:52:25;;;;;;;;;;;22.50;42.50;;;;;;696571;28;897;-92
2022/05/04 00:52:47;;;;;;;;;;;22.60;42.40;;;;;;696470;28;870;-92
2022/05/04 00:53:08;;;;;;;;;;;22.60;42.30;;;;;;697180;28;917;-90
2022/05/04 00:53:28;;;;;;;;;;;22.60;42.30;;;;;;699058;28;1971;-94
2022/05/04 00:53:49;;;;;;;;;;;22.60;42.20;;;;;;699400;28;786;-94
2022/05/04 00:54:10;;;;;;;;;;;22.60;42.10;;;;;;699498;28;861;-92
2022/05/04 00:54:32;;;;;;;;;;;22.60;42.00;;;;;;699411;28;814;-85
2022/05/04 00:54:52;;;;;;;;;;;22.60;41.60;;;;;;699791;28;790;-93
2022/05/04 00:55:16;;;;;;;;;;;22.50;41.90;;;;;;699438;28;786;-81
2022/05/04 00:55:36;;;;;;;;;;;22.60;42.10;;;;;;699270;28;790;-93
2022/05/04 00:55:59;;;;;;;;;;;22.60;41.70;;;;;;699271;28;1124;-87
2022/05/04 00:56:20;;;;;;;;;;;22.60;41.60;;;;;;699890;28;868;-82
2022/05/04 00:56:41;;;;;;;;;;;22.60;41.80;;;;;;701430;28;853;-88
2022/05/04 00:57:02;;;;;;;;;;;22.60;41.90;;;;;;699753;28;1012;-93
2022/05/04 00:59:21;;;;;;;;;;;22.60;41.80;;;;;;699669;28;1229;-78
2022/05/04 00:59:42;;;;;;;;;;;22.60;41.70;;;;;;699831;28;1474;-91
2022/05/04 01:00:04;;;;;;;;;;;22.60;41.70;;;;;;699582;28;974;-81
2022/05/04 01:00:25;;;;;;;;;;;22.60;41.60;;;;;;701052;28;1229;-92
2022/05/04 01:00:48;;;;;;;;;;;22.60;41.80;;;;;;701769;28;1351;-93
2022/05/04 01:01:09;;;;;;;;;;;22.60;41.70;;;;;;699798;28;891;-91
2022/05/04 01:01:30;;;;;;;;;;;22.60;41.80;;;;;;696301;28;932;-90
2022/05/04 01:01:51;;;;;;;;;;;22.60;41.70;;;;;;697006;28;779;-92
2022/05/04 01:02:12;;;;;;;;;;;22.60;41.80;;;;;;694285;28;1357;-90
2022/05/04 01:02:33;;;;;;;;;;;22.60;41.50;;;;;;694213;28;949;-89
2022/05/04 01:02:54;;;;;;;;;;;22.60;41.50;;;;;;694253;28;845;-89
2022/05/04 01:03:14;;;;;;;;;;;22.60;41.60;;;;;;694800;28;1443;-92
2022/05/04 01:03:37;;;;;;;;;;;22.60;41.30;;;;;;697045;28;855;-93
2022/05/04 01:03:58;;;;;;;;;;;22.60;41.50;;;;;;697542;28;881;-84
2022/05/04 01:04:18;;;;;;;;;;;22.60;41.60;;;;;;699759;28;881;-94
2022/05/04 01:04:39;;;;;;;;;;;22.60;41.50;;;;;;699918;28;864;-90
2022/05/04 01:04:59;;;;;;;;;;;22.60;41.40;;;;;;699750;28;870;-90
2022/05/04 01:05:22;;;;;;;;;;;22.60;41.40;;;;;;699774;28;880;-93
2022/05/04 01:05:43;;;;;;;;;;;22.60;41.50;;;;;;699838;28;955;-81
2022/05/04 01:06:03;;;;;;;;;;;22.60;41.50;;;;;;699922;28;837;-93
2022/05/04 01:06:25;;;;;;;;;;;22.60;41.50;;;;;;699655;28;854;-93
2022/05/04 01:06:46;;;;;;;;;;;22.60;41.50;;;;;;699778;28;841;-90
2022/05/04 01:07:08;;;;;;;;;;;22.60;41.50;;;;;;699702;28;835;-93
2022/05/04 01:07:29;;;;;;;;;;;22.70;41.70;;;;;;696894;28;1263;-91
2022/05/04 01:07:50;;;;;;;;;;;22.70;41.50;;;;;;696863;28;940;-92
2022/05/04 01:08:11;;;;;;;;;;;22.60;41.50;;;;;;696937;28;874;-90
2022/05/04 01:08:32;;;;;;;;;;;22.60;41.40;;;;;;696882;28;884;-91
2022/05/04 01:08:53;;;;;;;;;;;22.60;41.50;;;;;;696875;28;971;-83
2022/05/04 01:09:15;;;;;;;;;;;22.60;41.40;;;;;;697531;28;873;-89
2022/05/04 01:09:35;;;;;;;;;;;22.60;41.50;;;;;;699681;28;810;-91
2022/05/04 01:09:56;;;;;;;;;;;22.60;41.50;;;;;;699594;28;865;-90
2022/05/04 01:10:16;;;;;;;;;;;22.60;41.40;;;;;;699687;28;1475;-89
2022/05/04 01:10:37;;;;;;;;;;;22.60;41.30;;;;;;699915;28;766;-93
2022/05/04 01:10:57;;;;;;;;;;;22.60;41.30;;;;;;699698;28;898;-94
2022/05/04 01:11:19;;;;;;;;;;;22.70;41.40;;;;;;699754;28;845;-93
2022/05/04 01:11:40;;;;;;;;;;;22.70;41.30;;;;;;699784;28;969;-90
2022/05/04 01:12:00;;;;;;;;;;;22.60;41.20;;;;;;699671;28;798;-93
2022/05/04 01:12:22;;;;;;;;;;;22.60;41.40;;;;;;699679;28;916;-94
2022/05/04 01:12:46;;;;;;;;;;;22.70;41.50;;;;;;699940;28;859;-92
2022/05/04 01:13:06;;;;;;;;;;;22.70;41.40;;;;;;699741;28;826;-91
2022/05/04 01:13:27;;;;;;;;;;;22.70;41.30;;;;;;699561;28;1950;-82
2022/05/04 01:14:06;;;;;;;;;;;22.70;41.10;;;;;;699608;28;870;-91
2022/05/04 01:14:26;;;;;;;;;;;22.70;41.30;;;;;;699735;28;906;-90
2022/05/04 01:14:47;;;;;;;;;;;22.70;41.30;;;;;;699572;28;873;-89
2022/05/04 01:15:08;;;;;;;;;;;22.70;41.40;;;;;;699775;28;799;-87
2022/05/04 01:15:29;;;;;;;;;;;22.70;41.40;;;;;;699563;28;1052;-93
2022/05/04 01:15:49;;;;;;;;;;;22.70;41.40;;;;;;699657;28;909;-92
2022/05/04 01:16:10;;;;;;;;;;;22.70;41.20;;;;;;699756;28;822;-93
2022/05/04 01:16:31;;;;;;;;;;;22.70;41.00;;;;;;699554;28;838;-92
2022/05/04 01:16:52;;;;;;;;;;;22.60;41.00;;;;;;699804;28;806;-92
2022/05/04 01:17:13;;;;;;;;;;;22.70;41.10;;;;;;699800;28;811;-89
2022/05/04 01:17:35;;;;;;;;;;;22.70;41.10;;;;;;699730;28;957;-90
2022/05/04 01:17:55;;;;;;;;;;;22.70;41.10;;;;;;699596;28;834;-87
2022/05/04 01:18:16;;;;;;;;;;;22.70;40.90;;;;;;699805;28;901;-92
2022/05/04 01:18:36;;;;;;;;;;;22.70;40.80;;;;;;699785;28;870;-92
2022/05/04 01:18:57;;;;;;;;;;;22.70;40.70;;;;;;699610;28;837;-93
2022/05/04 01:19:18;;;;;;;;;;;22.60;40.60;;;;;;699651;28;929;-91
2022/05/04 01:19:38;;;;;;;;;;;22.70;40.60;;;;;;699830;28;1043;-84
2022/05/04 01:19:59;;;;;;;;;;;22.70;40.50;;;;;;699583;28;1000;-93
2022/05/04 01:20:20;;;;;;;;;;;22.70;40.50;;;;;;699677;28;849;-93
2022/05/04 01:20:40;;;;;;;;;;;22.60;40.50;;;;;;699780;28;1342;-93
2022/05/04 01:21:02;;;;;;;;;;;22.60;40.50;;;;;;699848;28;913;-93
2022/05/04 01:21:22;;;;;;;;;;;23.00;40.60;;;;;;699736;28;908;-85
2022/05/04 01:21:43;;;;;;;;;;;22.60;40.40;;;;;;700283;28;966;-92
2022/05/04 01:22:04;;;;;;;;;;;22.60;40.50;;;;;;702760;28;909;-93
2022/05/04 01:22:47;;;;;;;;;;;22.60;40.70;;;;;;704580;28;873;-89
2022/05/04 01:23:31;;;;;;;;;;;22.60;40.70;;;;;;699572;28;787;-90
2022/05/04 01:23:56;;;;;;;;;;;22.60;40.90;;;;;;687623;28;964;-82
2022/05/04 01:24:16;;;;;;;;;;;22.60;40.60;;;;;;685777;28;1014;-93
2022/05/04 01:24:38;;;;;;;;;;;22.60;40.50;;;;;;686174;28;863;-94
2022/05/04 01:24:59;;;;;;;;;;;22.60;40.50;;;;;;686279;28;951;-91
2022/05/04 01:25:19;;;;;;;;;;;22.60;40.50;;;;;;686049;28;970;-90
2022/05/04 01:25:40;;;;;;;;;;;22.60;40.70;;;;;;686065;28;1166;-94
2022/05/04 01:26:00;;;;;;;;;;;22.60;40.80;;;;;;686075;28;827;-93
2022/05/04 01:26:21;;;;;;;;;;;22.60;41.10;;;;;;685964;28;1156;-93
2022/05/04 01:26:41;;;;;;;;;;;22.60;41.20;;;;;;686117;28;918;-93
2022/05/04 01:27:02;;;;;;;;;;;22.50;41.10;;;;;;685993;28;938;-94
2022/05/04 01:27:25;;;;;;;;;;;22.60;40.80;;;;;;686105;28;854;-86
2022/05/04 01:27:45;;;;;;;;;;;22.60;40.90;;;;;;685986;28;894;-94
2022/05/04 01:28:06;;;;;;;;;;;22.60;40.90;;;;;;685987;28;850;-89
2022/05/04 01:28:26;;;;;;;;;;;22.60;40.80;;;;;;686082;28;1326;-93
2022/05/04 01:28:47;;;;;;;;;;;22.60;40.60;;;;;;686022;28;1444;-93
2022/05/04 01:29:08;;;;;;;;;;;22.60;40.70;;;;;;685989;28;1062;-93
2022/05/04 01:29:28;;;;;;;;;;;22.60;40.90;;;;;;686065;28;874;-93
2022/05/04 01:29:49;;;;;;;;;;;22.60;40.80;;;;;;686286;28;1065;-94
2022/05/04 01:30:11;;;;;;;;;;;22.60;40.70;;;;;;686155;28;870;-86
2022/05/04 01:30:32;;;;;;;;;;;22.50;41.00;;;;;;686104;28;931;-92
2022/05/04 01:30:52;;;;;;;;;;;22.50;41.10;;;;;;685973;28;1323;-83
2022/05/04 01:31:13;;;;;;;;;;;22.50;41.10;;;;;;686046;28;775;-92
2022/05/04 01:31:33;;;;;;;;;;;22.50;40.70;;;;;;683347;29;831;-90
2022/05/04 01:31:54;;;;;;;;;;;22.60;40.70;;;;;;683383;29;965;-92
2022/05/04 01:32:15;;;;;;;;;;;22.50;40.60;;;;;;683196;29;1313;-92
2022/05/04 01:32:35;;;;;;;;;;;22.50;40.80;;;;;;683476;29;1206;-93
2022/05/04 01:32:56;;;;;;;;;;;22.50;40.80;;;;;;683411;29;918;-93
2022/05/04 01:33:16;;;;;;;;;;;22.50;41.00;;;;;;683428;28;1899;-93
2022/05/04 01:33:37;;;;;;;;;;;22.50;40.60;;;;;;686167;28;891;-93
2022/05/04 01:33:59;;;;;;;;;;;22.50;40.80;;;;;;686106;28;811;-93
2022/05/04 01:34:20;;;;;;;;;;;22.50;41.00;;;;;;685941;28;803;-89
2022/05/04 01:34:41;;;;;;;;;;;22.50;41.30;;;;;;686056;28;856;-92
2022/05/04 01:35:01;;;;;;;;;;;22.50;41.30;;;;;;686085;28;788;-93
2022/05/04 01:35:22;;;;;;;;;;;22.50;40.80;;;;;;686109;28;969;-93
2022/05/04 01:35:42;;;;;;;;;;;22.50;40.60;;;;;;686207;28;882;-85
2022/05/04 01:36:03;;;;;;;;;;;22.50;41.00;;;;;;685938;28;1164;-91
2022/05/04 01:36:24;;;;;;;;;;;22.50;40.90;;;;;;686034;28;811;-92
2022/05/04 01:36:45;;;;;;;;;;;22.50;40.70;;;;;;685969;28;820;-91
2022/05/04 01:37:05;;;;;;;;;;;22.50;40.60;;;;;;686068;28;957;-92
2022/05/04 01:37:26;;;;;;;;;;;22.50;40.80;;;;;;685973;28;902;-92
2022/05/04 01:37:46;;;;;;;;;;;22.50;40.90;;;;;;686126;28;779;-93
2022/05/04 01:38:07;;;;;;;;;;;22.50;40.90;;;;;;686311;28;913;-90
2022/05/04 01:38:27;;;;;;;;;;;22.50;41.20;;;;;;685997;28;874;-90
2022/05/04 01:38:48;;;;;;;;;;;22.50;41.20;;;;;;686062;28;906;-91
2022/05/04 01:39:08;;;;;;;;;;;22.50;41.00;;;;;;685964;28;898;-92
2022/05/04 01:39:30;;;;;;;;;;;22.50;41.10;;;;;;686000;28;894;-92
2022/05/04 01:39:52;;;;;;;;;;;22.50;41.00;;;;;;685983;28;914;-90
2022/05/04 01:40:12;;;;;;;;;;;22.50;40.80;;;;;;686079;28;945;-86
2022/05/04 01:40:33;;;;;;;;;;;22.50;40.60;;;;;;683158;29;1451;-90
2022/05/04 01:40:53;;;;;;;;;;;22.50;40.60;;;;;;683465;29;926;-92
2022/05/04 01:42:32;;;;;;;;;;;22.50;40.70;;;;;;685469;28;1334;-90
2022/05/04 01:42:52;;;;;;;;;;;22.50;40.80;;;;;;685993;28;1032;-84
2022/05/04 01:43:13;;;;;;;;;;;22.50;40.60;;;;;;685945;28;1389;-90
2022/05/04 01:43:33;;;;;;;;;;;22.50;40.90;;;;;;686087;28;862;-90
2022/05/04 01:43:54;;;;;;;;;;;22.50;41.00;;;;;;686056;28;942;-90
2022/05/04 01:44:15;;;;;;;;;;;22.50;41.10;;;;;;685881;28;787;-91
2022/05/04 01:44:35;;;;;;;;;;;22.50;41.30;;;;;;686073;28;1087;-92
2022/05/04 01:44:56;;;;;;;;;;;22.40;41.00;;;;;;686156;28;874;-92
2022/05/04 01:45:16;;;;;;;;;;;22.50;41.00;;;;;;686131;28;784;-87
2022/05/04 01:45:37;;;;;;;;;;;22.40;41.20;;;;;;686025;28;859;-93
2022/05/04 01:45:57;;;;;;;;;;;22.40;40.90;;;;;;685929;28;855;-89
2022/05/04 01:46:19;;;;;;;;;;;22.40;40.80;;;;;;686099;28;882;-90
2022/05/04 01:46:39;;;;;;;;;;;22.40;41.00;;;;;;685951;28;878;-92
2022/05/04 01:47:00;;;;;;;;;;;22.40;40.90;;;;;;685884;28;827;-88
2022/05/04 01:47:21;;;;;;;;;;;22.40;40.70;;;;;;685904;28;863;-90
2022/05/04 01:47:45;;;;;;;;;;;22.40;40.80;;;;;;686144;28;815;-93
2022/05/04 01:48:06;;;;;;;;;;;22.40;40.90;;;;;;686065;28;831;-92
2022/05/04 01:48:27;;;;;;;;;;;22.40;40.80;;;;;;686011;28;1152;-92
2022/05/04 01:48:49;;;;;;;;;;;22.40;40.70;;;;;;685918;28;783;-88
2022/05/04 01:49:09;;;;;;;;;;;22.40;40.70;;;;;;686074;28;1396;-92
2022/05/04 01:49:30;;;;;;;;;;;22.40;40.70;;;;;;685982;28;835;-92
2022/05/04 01:49:50;;;;;;;;;;;22.40;41.20;;;;;;686013;28;929;-93
2022/05/04 01:50:11;;;;;;;;;;;22.40;41.00;;;;;;686151;28;903;-93
2022/05/04 01:50:31;;;;;;;;;;;22.40;40.80;;;;;;686034;28;865;-93
2022/05/04 01:50:52;;;;;;;;;;;22.40;40.80;;;;;;686053;28;862;-91
2022/05/04 01:51:12;;;;;;;;;;;22.40;40.80;;;;;;686091;28;1417;-85
2022/05/04 01:51:33;;;;;;;;;;;22.40;41.00;;;;;;686048;28;834;-90
2022/05/04 01:51:53;;;;;;;;;;;22.40;41.00;;;;;;686066;28;798;-92
2022/05/04 01:52:14;;;;;;;;;;;22.40;40.60;;;;;;686079;28;968;-90
2022/05/04 01:52:34;;;;;;;;;;;22.40;40.70;;;;;;685885;28;928;-88
2022/05/04 01:52:55;;;;;;;;;;;22.40;41.00;;;;;;686087;28;771;-93
2022/05/04 01:53:15;;;;;;;;;;;22.40;41.00;;;;;;685896;28;1915;-89
2022/05/04 01:53:36;;;;;;;;;;;22.40;41.10;;;;;;686105;28;803;-93
2022/05/04 01:53:57;;;;;;;;;;;22.40;40.80;;;;;;686097;28;885;-92
2022/05/04 01:54:17;;;;;;;;;;;22.40;40.90;;;;;;685976;28;772;-88
2022/05/04 01:54:38;;;;;;;;;;;22.40;40.80;;;;;;685875;28;954;-92
2022/05/04 01:54:59;;;;;;;;;;;22.40;40.70;;;;;;686073;28;795;-92
2022/05/04 01:55:19;;;;;;;;;;;22.40;40.70;;;;;;686072;28;964;-92
2022/05/04 01:55:41;;;;;;;;;;;22.40;41.20;;;;;;686105;28;857;-92
2022/05/04 01:56:06;;;;;;;;;;;22.40;40.90;;;;;;685909;28;795;-90
2022/05/04 01:56:26;;;;;;;;;;;22.40;40.90;;;;;;686033;28;862;-90
2022/05/04 01:56:47;;;;;;;;;;;22.40;40.90;;;;;;686012;28;844;-91
2022/05/04 01:57:08;;;;;;;;;;;22.40;41.00;;;;;;686013;28;874;-92
2022/05/04 01:57:28;;;;;;;;;;;22.40;41.00;;;;;;685954;28;879;-93
2022/05/04 01:57:49;;;;;;;;;;;22.40;40.70;;;;;;686000;28;1190;-93
2022/05/04 01:58:11;;;;;;;;;;;22.40;40.70;;;;;;686228;28;831;-89
2022/05/04 01:58:32;;;;;;;;;;;22.40;40.80;;;;;;685978;28;890;-91
2022/05/04 01:58:52;;;;;;;;;;;22.40;41.20;;;;;;685878;28;885;-87
2022/05/04 01:59:13;;;;;;;;;;;22.30;41.10;;;;;;686104;28;775;-92
2022/05/04 01:59:33;;;;;;;;;;;22.40;41.00;;;;;;686362;28;965;-86
2022/05/04 01:59:54;;;;;;;;;;;22.40;41.10;;;;;;685980;28;862;-92
2022/05/04 02:00:15;;;;;;;;;;;22.40;41.00;;;;;;686929;28;952;-92
2022/05/04 02:00:35;;;;;;;;;;;22.30;40.90;;;;;;687332;28;736;-92
2022/05/04 02:00:57;;;;;;;;;;;22.40;40.90;;;;;;687146;28;795;-93
2022/05/04 02:01:18;;;;;;;;;;;22.30;41.00;;;;;;690503;28;1467;-82
2022/05/04 02:01:39;;;;;;;;;;;22.40;41.10;;;;;;691919;28;854;-81
2022/05/04 02:01:59;;;;;;;;;;;22.30;41.00;;;;;;697606;28;1082;-80
2022/05/04 02:02:20;;;;;;;;;;;22.30;40.90;;;;;;700453;28;938;-81
2022/05/04 02:02:41;;;;;;;;;;;22.40;40.80;;;;;;700432;28;877;-85
2022/05/04 02:03:02;;;;;;;;;;;22.30;40.80;;;;;;700221;28;877;-81
2022/05/04 02:03:22;;;;;;;;;;;22.30;40.90;;;;;;703276;28;755;-80
2022/05/04 02:03:43;;;;;;;;;;;22.40;41.20;;;;;;703603;28;1031;-82
2022/05/04 02:04:04;;;;;;;;;;;22.30;40.90;;;;;;703595;28;830;-84
2022/05/04 02:04:25;;;;;;;;;;;22.40;41.00;;;;;;703091;28;841;-84
2022/05/04 02:04:45;;;;;;;;;;;22.30;42.10;;;;;;702980;28;849;-92
2022/05/04 02:05:06;;;;;;;;;;;22.40;41.10;;;;;;703349;28;861;-79
2022/05/04 02:05:27;;;;;;;;;;;22.30;41.00;;;;;;703093;28;963;-83
2022/05/04 02:05:48;;;;;;;;;;;22.40;40.90;;;;;;702902;28;774;-88
2022/05/04 02:06:09;;;;;;;;;;;22.30;40.80;;;;;;703332;28;967;-92
2022/05/04 02:06:29;;;;;;;;;;;22.30;41.00;;;;;;702961;28;900;-81
2022/05/04 02:06:52;;;;;;;;;;;22.30;40.70;;;;;;702871;28;801;-84
2022/05/04 02:07:13;;;;;;;;;;;22.30;41.00;;;;;;702862;28;979;-81
2022/05/04 02:07:34;;;;;;;;;;;22.30;41.10;;;;;;702767;28;870;-79
2022/05/04 02:07:55;;;;;;;;;;;22.30;41.20;;;;;;702628;28;766;-81
2022/05/04 02:08:15;;;;;;;;;;;22.30;41.00;;;;;;702582;28;901;-82
2022/05/04 02:08:37;;;;;;;;;;;22.30;40.80;;;;;;702581;28;976;-79
2022/05/04 02:08:57;;;;;;;;;;;22.30;40.70;;;;;;702665;28;849;-82
2022/05/04 02:09:18;;;;;;;;;;;22.30;40.80;;;;;;702488;28;869;-81
2022/05/04 02:09:40;;;;;;;;;;;22.30;40.90;;;;;;702658;28;869;-78
2022/05/04 02:10:05;;;;;;;;;;;22.30;40.80;;;;;;702404;28;976;-78
2022/05/04 02:10:25;;;;;;;;;;;22.30;40.70;;;;;;702659;28;1501;-79
2022/05/04 02:10:46;;;;;;;;;;;22.30;40.60;;;;;;702644;28;852;-79
2022/05/04 02:11:06;;;;;;;;;;;22.30;40.70;;;;;;702754;28;948;-79
2022/05/04 02:11:28;;;;;;;;;;;22.30;40.70;;;;;;702519;28;924;-78
2022/05/04 02:11:49;;;;;;;;;;;22.30;40.90;;;;;;702537;28;879;-81
2022/05/04 02:12:09;;;;;;;;;;;22.30;41.00;;;;;;702550;28;902;-82
2022/05/04 02:12:30;;;;;;;;;;;22.30;40.80;;;;;;702615;28;807;-83